Time;durP1;ratioP1;P1;durP2;ratioP2;P2;SDS_P1;SDS_P2;PMS_P1;PMS_P2;Temp;Humidity;BMP_temperature;BMP_pressure;BME280_temperature;BME280_humidity;BME280_pressure;Samples;Min_cycle;Max_cycle;Signal;HPM_P1;HPM_P2
2022/06/11 00:02:03;;;;;;;5.93;4.30;;;;;;;14.99;77.63;96901.28;5034857;28;20119;-80
2022/06/11 00:04:34;;;;;;;8.38;4.35;;;;;;;14.97;77.68;96900.78;5035631;28;20408;-80
2022/06/11 00:07:04;;;;;;;7.18;5.10;;;;;;;15.01;77.28;96894.31;5033928;28;20052;-80
2022/06/11 00:09:31;;;;;;;6.05;4.47;;;;;;;15.06;78.06;96896.84;5034083;28;20041;-79
2022/06/11 00:11:59;;;;;;;8.10;4.82;;;;;;;15.08;77.68;96904.75;5033784;28;20437;-80
2022/06/11 00:14:28;;;;;;;6.78;4.57;;;;;;;15.00;77.65;96908.34;5033293;28;20049;-80
2022/06/11 00:16:55;;;;;;;6.78;4.38;;;;;;;14.98;78.03;96903.22;5032955;28;20042;-80
2022/06/11 00:19:23;;;;;;;8.25;4.82;;;;;;;14.92;77.72;96900.97;5032233;28;20051;-79
2022/06/11 00:21:53;;;;;;;9.20;4.68;;;;;;;14.85;78.39;96901.50;5032569;28;20053;-80
2022/06/11 00:24:22;;;;;;;6.75;4.40;;;;;;;14.88;79.13;96898.13;5033108;28;20100;-80
2022/06/11 00:26:51;;;;;;;8.48;4.90;;;;;;;14.80;79.30;96899.75;5033071;28;20053;-80
2022/06/11 00:29:19;;;;;;;7.18;5.07;;;;;;;14.77;79.13;96894.97;5032546;28;20204;-79
2022/06/11 00:31:46;;;;;;;6.50;4.95;;;;;;;14.73;79.99;96896.75;5032668;28;20048;-80
2022/06/11 00:34:13;;;;;;;4.85;4.20;;;;;;;14.69;80.70;96898.53;5031424;28;20049;-80
2022/06/11 00:36:40;;;;;;;6.70;4.70;;;;;;;14.68;80.20;96896.94;5033138;28;20042;-80
2022/06/11 00:39:08;;;;;;;7.00;4.40;;;;;;;14.61;79.46;96897.44;5032515;28;20073;-79
2022/06/11 00:41:38;;;;;;;9.07;5.20;;;;;;;14.56;79.46;96888.59;5031241;28;20052;-80
2022/06/11 00:44:05;;;;;;;7.90;5.32;;;;;;;14.48;79.58;96886.72;5032206;28;20049;-81
2022/06/11 00:46:50;;;;;;;10.40;4.80;;;;;;;14.46;80.14;96883.47;5032677;28;20757;-80
2022/06/11 00:49:28;;;;;;;6.78;4.45;;;;;;;14.43;80.47;96890.44;5031516;28;20052;-79
2022/06/11 00:52:00;;;;;;;7.38;5.03;;;;;;;14.42;81.14;96882.53;5033048;28;20480;-80
2022/06/11 00:54:30;;;;;;;6.60;5.20;;;;;;;14.43;81.35;96873.97;5032344;28;20484;-79
2022/06/11 00:56:59;;;;;;;9.73;5.15;;;;;;;14.41;81.45;96881.75;5032968;28;20284;-80
2022/06/11 00:59:30;;;;;;;7.72;5.18;;;;;;;14.37;81.85;96867.09;5032426;28;20049;-80
2022/06/11 01:01:57;;;;;;;7.53;4.85;;;;;;;14.38;81.99;96878.84;5032416;28;20496;-80
2022/06/11 01:04:42;;;;;;;9.40;5.20;;;;;;;14.40;82.36;96879.31;5033007;28;20079;-79
2022/06/11 01:07:19;;;;;;;5.55;4.82;;;;;;;14.36;80.93;96880.00;5031870;28;20047;-80
2022/06/11 01:09:57;;;;;;;6.07;4.65;;;;;;;14.30;80.97;96875.00;5032729;28;20041;-80
2022/06/11 01:12:30;;;;;;;7.93;4.82;;;;;;;14.28;81.65;96878.06;5031661;28;20048;-81
2022/06/11 01:15:08;;;;;;;6.90;4.47;;;;;;;14.28;81.77;96878.06;5032268;28;20037;-79
2022/06/11 01:17:42;;;;;;;6.63;4.93;;;;;;;14.25;81.61;96873.28;5021815;28;20056;-80
2022/06/11 01:20:23;;;;;;;9.82;5.43;;;;;;;14.21;81.66;96875.06;5030764;28;20045;-79
2022/06/11 01:23:37;;;;;;;6.75;4.80;;;;;;;14.22;81.58;96881.34;5031769;28;20045;-79
2022/06/11 01:26:22;;;;;;;5.88;4.75;;;;;;;14.17;82.20;96882.31;5012030;28;20037;-79
2022/06/11 01:29:02;;;;;;;7.93;5.40;;;;;;;14.16;82.28;96875.25;5031788;28;20049;-80
2022/06/11 01:31:35;;;;;;;7.50;4.97;;;;;;;14.13;82.03;96878.63;5031965;28;20044;-80
2022/06/11 01:34:09;;;;;;;5.70;5.10;;;;;;;14.10;81.96;96876.56;5033153;28;20508;-78
2022/06/11 01:36:40;;;;;;;6.72;4.90;;;;;;;14.07;82.28;96882.66;5033234;28;20042;-79
2022/06/11 01:39:16;;;;;;;8.07;5.22;;;;;;;13.99;82.51;96883.50;5032739;28;20037;-79
2022/06/11 01:41:51;;;;;;;6.93;4.90;;;;;;;13.96;82.61;96884.16;5032708;28;20052;-80
2022/06/11 01:44:24;;;;;;;6.13;4.97;;;;;;;13.97;82.56;96878.34;5032411;28;20048;-80
2022/06/11 01:46:54;;;;;;;6.57;5.03;;;;;;;13.94;82.35;96875.44;5032534;28;20047;-79
2022/06/11 01:49:39;;;;;;;6.93;5.00;;;;;;;13.93;82.51;96879.31;5032228;28;20151;-80
2022/06/11 01:52:33;;;;;;;7.70;5.00;;;;;;;13.90;82.75;96874.53;5032014;28;20060;-80
2022/06/11 01:55:06;;;;;;;6.25;5.00;;;;;;;13.90;83.07;96878.06;5032746;28;20049;-80
2022/06/11 01:58:00;;;;;;;7.15;5.30;;;;;;;13.88;82.55;96869.34;5032225;28;20398;-80
2022/06/11 02:00:29;;;;;;;6.38;4.95;;;;;;;13.86;82.84;96876.28;5003059;28;20041;-80
2022/06/11 02:03:15;;;;;;;7.68;4.93;;;;;;;13.84;82.97;96863.75;5031092;28;20168;-79
2022/06/11 02:05:55;;;;;;;5.75;4.47;;;;;;;13.84;83.45;96874.69;5031013;28;20125;-79
2022/06/11 02:08:27;;;;;;;5.28;4.75;;;;;;;13.80;83.87;96873.72;5030252;28;20252;-80
2022/06/11 02:11:02;;;;;;;7.35;4.78;;;;;;;13.78;83.54;96870.53;5028678;28;20041;-80
2022/06/11 02:13:36;;;;;;;6.78;4.93;;;;;;;13.78;82.79;96875.16;5030846;28;20045;-80
2022/06/11 02:16:09;;;;;;;6.28;4.72;;;;;;;13.76;83.24;96875.50;5030293;28;20057;-78
2022/06/11 02:18:38;;;;;;;7.45;4.93;;;;;;;13.73;83.45;96873.44;5030443;28;20049;-80
2022/06/11 02:21:09;;;;;;;7.22;5.25;;;;;;;13.68;83.63;96884.56;5029743;28;20042;-79
2022/06/11 02:23:38;;;;;;;7.15;5.22;;;;;;;13.71;83.69;96875.69;5030482;28;20061;-80
2022/06/11 02:26:12;;;;;;;7.07;4.50;;;;;;;13.67;82.98;96880.19;5029823;28;20048;-80
2022/06/11 02:28:41;;;;;;;6.25;5.00;;;;;;;13.62;82.60;96883.09;5030757;28;20048;-79
2022/06/11 02:31:11;;;;;;;7.32;5.38;;;;;;;13.56;82.98;96885.19;5030076;28;20058;-79
2022/06/11 02:33:41;;;;;;;8.23;4.88;;;;;;;13.59;83.42;96883.75;5030443;28;20048;-79
2022/06/11 02:36:18;;;;;;;6.00;4.53;;;;;;;13.62;83.32;96880.34;5030113;28;20041;-79
2022/06/11 02:38:45;;;;;;;6.80;4.97;;;;;;;13.59;83.16;96891.97;5030533;28;20038;-79
2022/06/11 02:41:15;;;;;;;5.65;4.30;;;;;;;13.56;83.41;96887.13;5010614;28;20108;-79
2022/06/11 02:43:42;;;;;;;5.47;4.57;;;;;;;13.53;84.00;96885.06;5011108;28;20597;-79
2022/06/11 02:48:55;;;;;;;6.20;4.47;;;;;;;13.42;83.32;96895.53;5011283;28;20091;-80
2022/06/11 02:51:24;;;;;;;7.32;4.57;;;;;;;13.43;83.40;96896.34;5010440;28;20058;-79
2022/06/11 02:53:51;;;;;;;5.55;4.60;;;;;;;13.33;82.78;96900.19;5010692;28;20046;-80
2022/06/11 02:56:17;;;;;;;6.28;4.25;;;;;;;13.35;82.86;96903.41;5010669;28;20049;-80
2022/06/11 02:58:45;;;;;;;5.85;4.40;;;;;;;13.41;82.66;96909.50;5011116;28;20447;-80
2022/06/11 03:01:11;;;;;;;8.85;5.05;;;;;;;13.42;83.47;96913.88;5010698;28;20049;-80
2022/06/11 03:03:38;;;;;;;5.63;4.68;;;;;;;13.47;82.96;96902.78;5011006;28;20387;-80
2022/06/11 03:06:06;;;;;;;5.80;4.57;;;;;;;13.38;82.31;96910.19;5013805;28;20041;-79
2022/06/11 03:08:33;;;;;;;5.93;4.20;;;;;;;13.38;83.05;96910.97;5014454;28;20520;-80
2022/06/11 03:11:00;;;;;;;7.60;4.80;;;;;;;13.34;83.20;96917.41;5034289;28;20073;-79
2022/06/11 03:13:28;;;;;;;6.30;4.30;;;;;;;13.32;83.21;96924.00;5034017;28;20060;-79
2022/06/11 03:15:55;;;;;;;5.68;4.35;;;;;;;13.30;83.21;96926.25;5034074;28;20064;-79
2022/06/11 03:18:22;;;;;;;5.38;4.35;;;;;;;13.25;83.55;96923.66;5033483;28;20053;-81
2022/06/11 03:20:50;;;;;;;5.85;4.32;;;;;;;13.21;83.67;96927.38;5033672;28;20038;-82
2022/06/11 03:23:19;;;;;;;7.25;4.55;;;;;;;13.25;84.04;96928.34;5033125;28;20416;-79
2022/06/11 03:25:46;;;;;;;7.93;4.60;;;;;;;13.24;84.47;96921.25;5033472;28;20050;-79
2022/06/11 03:28:17;;;;;;;7.57;4.47;;;;;;;13.23;84.60;96923.19;5033484;28;20060;-79
2022/06/11 03:30:44;;;;;;;7.03;4.35;;;;;;;13.24;84.15;96927.53;5033455;28;20523;-80
2022/06/11 03:33:10;;;;;;;6.20;4.32;;;;;;;13.19;84.44;96930.41;5032758;28;20049;-79
2022/06/11 03:35:37;;;;;;;5.40;4.03;;;;;;;13.18;84.45;96931.53;5033158;28;20049;-80
2022/06/11 03:38:07;;;;;;;7.18;5.07;;;;;;;13.17;84.52;96932.66;5033166;28;20091;-80
2022/06/11 03:40:36;;;;;;;5.90;4.38;;;;;;;13.16;84.51;96930.25;5033219;28;20041;-79
2022/06/11 03:43:02;;;;;;;9.20;4.65;;;;;;;13.19;85.27;96930.41;5032769;28;20058;-79
2022/06/11 03:45:29;;;;;;;7.47;4.82;;;;;;;13.24;85.20;96933.00;5033059;28;20456;-80
2022/06/11 03:47:56;;;;;;;7.18;4.70;;;;;;;13.20;84.72;96934.72;5032691;28;20052;-80
2022/06/11 03:50:26;;;;;;;6.43;4.35;;;;;;;13.20;84.69;96932.00;5032526;28;20452;-79
2022/06/11 03:52:52;;;;;;;8.30;5.00;;;;;;;13.28;84.91;96931.25;5033175;28;20049;-80
2022/06/11 03:55:19;;;;;;;6.88;4.70;;;;;;;13.26;84.34;96941.72;5032760;28;20050;-79
2022/06/11 03:57:48;;;;;;;6.00;4.45;;;;;;;13.28;84.47;96939.44;5032915;28;20072;-79
2022/06/11 04:01:14;;;;;;;7.32;4.85;;;;;;;13.31;84.81;96938.00;5032651;28;20041;-79
2022/06/11 04:03:07;;;;;;;6.63;4.30;;;;;;;13.35;84.32;96932.69;5032266;28;20051;-80
2022/06/11 04:05:34;;;;;;;6.65;4.57;;;;;;;13.34;84.42;96947.50;5032833;28;20048;-79
2022/06/11 04:08:00;;;;;;;6.78;4.95;;;;;;;13.30;84.00;96942.66;5032896;28;20519;-79
2022/06/11 04:10:28;;;;;;;5.75;4.47;;;;;;;13.25;83.78;96948.28;5031386;28;20049;-79
2022/06/11 04:12:56;;;;;;;6.03;4.38;;;;;;;13.19;83.73;96952.28;5032483;28;20045;-79
2022/06/11 04:15:22;;;;;;;7.97;4.60;;;;;;;13.17;83.46;96959.19;5032223;28;20125;-79
2022/06/11 04:17:49;;;;;;;5.80;4.70;;;;;;;12.96;84.19;96959.00;5033385;28;20045;-80
2022/06/11 04:20:16;;;;;;;6.72;4.88;;;;;;;12.92;84.48;96958.03;5033269;28;20056;-79
2022/06/11 04:22:44;;;;;;;8.63;4.75;;;;;;;13.08;84.04;96956.44;5034296;28;20038;-79
2022/06/11 04:25:13;;;;;;;7.95;5.20;;;;;;;13.13;84.03;96964.50;5033137;28;20109;-79
2022/06/11 04:27:40;;;;;;;5.20;3.90;;;;;;;13.30;84.54;96959.06;5033667;28;20057;-79
2022/06/11 04:30:11;;;;;;;6.95;4.35;;;;;;;13.45;85.15;96962.47;5033274;28;20079;-78
2022/06/11 04:32:38;;;;;;;6.60;4.47;;;;;;;13.35;83.17;96955.38;5033971;28;20045;-79
2022/06/11 04:35:06;;;;;;;8.35;4.70;;;;;;;13.35;83.35;96960.84;5032306;28;20041;-79
2022/06/11 04:37:33;;;;;;;9.88;5.03;;;;;;;13.46;83.10;96966.81;5033348;28;20516;-79
2022/06/11 04:40:01;;;;;;;6.35;4.25;;;;;;;13.41;83.05;96965.03;5033173;28;20049;-79
2022/06/11 04:42:31;;;;;;;6.75;4.72;;;;;;;13.27;83.63;96965.19;5033612;28;20053;-79
2022/06/11 04:44:57;;;;;;;9.43;4.53;;;;;;;13.35;83.75;96962.78;5033387;28;20049;-80
2022/06/11 04:47:28;;;;;;;6.57;4.43;;;;;;;13.37;84.21;96963.28;5032210;28;20056;-79
2022/06/11 04:49:56;;;;;;;5.55;4.22;;;;;;;13.46;83.89;96967.59;5033914;28;20048;-80
2022/06/11 04:52:23;;;;;;;8.35;4.45;;;;;;;13.51;83.87;96963.91;5033142;28;20041;-79
2022/06/11 04:54:50;;;;;;;6.55;4.53;;;;;;;13.65;84.31;96970.03;5033912;28;20046;-79
2022/06/11 04:57:17;;;;;;;7.55;5.00;;;;;;;13.61;83.66;96963.59;5031974;28;20049;-79
2022/06/11 04:59:44;;;;;;;7.90;5.18;;;;;;;13.62;83.81;96964.38;5032989;28;20046;-80
2022/06/11 05:02:10;;;;;;;7.13;4.65;;;;;;;13.62;84.02;96972.59;5032789;28;20447;-79
2022/06/11 05:04:39;;;;;;;6.82;4.60;;;;;;;13.77;84.01;96967.44;5033478;28;20052;-80
2022/06/11 05:07:06;;;;;;;7.40;4.70;;;;;;;13.76;84.13;96975.97;5032963;28;20045;-80
2022/06/11 05:09:33;;;;;;;7.45;4.97;;;;;;;13.91;83.58;96971.94;5032571;28;20454;-80
2022/06/11 05:12:00;;;;;;;7.07;4.75;;;;;;;13.88;83.85;96980.78;5032879;28;20099;-80
2022/06/11 05:14:27;;;;;;;6.75;5.25;;;;;;;13.89;83.39;96977.75;5034505;28;20037;-80
2022/06/11 05:16:56;;;;;;;8.90;5.05;;;;;;;13.80;84.43;96977.75;5035803;28;20405;-79
2022/06/11 05:19:23;;;;;;;6.88;4.75;;;;;;;13.84;84.89;96983.41;5035633;28;20095;-80
2022/06/11 05:21:51;;;;;;;6.53;5.10;;;;;;;14.11;84.19;96976.75;5036234;28;20044;-80
2022/06/11 05:24:19;;;;;;;8.15;5.35;;;;;;;13.97;84.30;96976.13;5038541;28;20041;-80
2022/06/11 05:26:50;;;;;;;8.82;5.10;;;;;;;14.19;83.85;96978.66;5037531;28;20385;-80
2022/06/11 05:29:23;;;;;;;8.60;4.72;;;;;;;14.33;83.49;96984.75;5035135;28;20049;-80
2022/06/11 05:31:51;;;;;;;7.53;4.80;;;;;;;14.41;82.68;96985.03;5035386;28;20056;-80
2022/06/11 05:34:17;;;;;;;6.80;5.10;;;;;;;14.50;82.59;96983.91;5033091;28;20052;-79
2022/06/11 05:36:44;;;;;;;9.27;4.50;;;;;;;14.45;81.87;96986.78;5033058;28;20046;-80
2022/06/11 05:39:12;;;;;;;7.70;4.50;;;;;;;14.44;81.82;96989.88;5033378;28;20052;-79
2022/06/11 05:41:38;;;;;;;8.23;5.07;;;;;;;14.50;82.26;96977.63;5038589;28;20049;-80
2022/06/11 05:44:05;;;;;;;8.35;5.00;;;;;;;14.44;82.64;96987.13;5034569;28;20068;-80
2022/06/11 05:46:34;;;;;;;7.68;5.65;;;;;;;14.29;83.45;96978.28;5033393;28;20049;-80
2022/06/11 05:49:03;;;;;;;7.50;4.95;;;;;;;14.29;83.99;96989.25;5032727;28;20069;-79
2022/06/11 05:51:34;;;;;;;8.65;5.15;;;;;;;14.58;83.48;96990.50;5030399;28;20041;-81
2022/06/11 05:54:06;;;;;;;6.88;4.80;;;;;;;14.76;83.04;96983.81;5033496;28;20038;-80
2022/06/11 05:56:34;;;;;;;6.53;4.95;;;;;;;14.80;82.15;96986.69;5031942;28;20045;-80
2022/06/11 05:59:11;;;;;;;7.72;5.22;;;;;;;14.77;82.37;96984.59;5031636;28;20049;-80
2022/06/11 06:01:41;;;;;;;9.95;4.78;;;;;;;14.73;82.70;96989.97;5031321;28;20037;-80
2022/06/11 06:04:08;;;;;;;5.22;4.40;;;;;;;15.00;82.10;96991.44;5029826;28;20386;-80
2022/06/11 06:06:35;;;;;;;7.15;4.85;;;;;;;15.15;81.47;96992.81;5013944;28;20049;-80
2022/06/11 06:09:02;;;;;;;8.10;4.97;;;;;;;15.18;81.79;96997.63;5030968;28;20049;-79
2022/06/11 06:11:29;;;;;;;8.40;5.55;;;;;;;14.97;82.44;96992.09;5031314;28;20452;-81
2022/06/11 06:13:57;;;;;;;7.43;4.93;;;;;;;14.77;83.00;96993.66;5020658;28;20492;-80
2022/06/11 06:16:26;;;;;;;7.80;5.43;;;;;;;14.96;83.00;96989.69;5031187;28;20120;-81
2022/06/11 06:18:55;;;;;;;9.25;4.78;;;;;;;15.03;82.02;96989.97;5031195;28;20042;-80
2022/06/11 06:21:24;;;;;;;8.00;5.38;;;;;;;15.11;82.12;96986.38;5030951;28;20057;-80
2022/06/11 06:23:51;;;;;;;5.65;4.65;;;;;;;15.31;81.51;96990.28;5031193;28;20045;-81
2022/06/11 06:26:18;;;;;;;7.25;4.82;;;;;;;15.32;80.90;96992.69;5029452;28;20531;-80
2022/06/11 06:28:45;;;;;;;7.07;5.20;;;;;;;15.47;80.85;96990.50;5029714;28;20099;-80
2022/06/11 06:31:15;;;;;;;7.00;4.75;;;;;;;15.31;80.18;96993.03;5030849;28;20049;-80
2022/06/11 06:33:41;;;;;;;6.10;4.78;;;;;;;15.59;79.93;96987.81;5030619;28;20068;-79
2022/06/11 06:36:09;;;;;;;7.15;4.70;;;;;;;15.70;79.94;96986.31;5030345;28;20397;-81
2022/06/11 06:38:37;;;;;;;9.25;5.07;;;;;;;15.74;80.00;96989.19;5030829;28;20041;-80
2022/06/11 06:41:04;;;;;;;9.50;5.38;;;;;;;15.68;80.24;96994.09;5034012;28;20046;-79
2022/06/11 06:43:30;;;;;;;8.57;5.05;;;;;;;15.88;79.64;96997.97;5034706;28;20072;-80
2022/06/11 06:45:57;;;;;;;6.15;4.65;;;;;;;16.10;79.34;96999.53;5033692;28;20046;-80
2022/06/11 06:48:25;;;;;;;6.35;4.78;;;;;;;16.25;78.71;96996.16;5034390;28;20045;-80
2022/06/11 06:50:52;;;;;;;8.40;4.80;;;;;;;16.17;77.07;96997.03;5025640;28;20124;-80
2022/06/11 06:53:19;;;;;;;5.95;4.32;;;;;;;16.37;77.18;96998.13;5033827;28;20057;-81
2022/06/11 06:55:45;;;;;;;8.95;4.93;;;;;;;16.50;76.23;96993.47;5034793;28;20045;-81
2022/06/11 06:58:14;;;;;;;7.32;5.15;;;;;;;16.51;76.07;96997.81;5033368;28;20055;-80
2022/06/11 07:00:41;;;;;;;9.40;4.95;;;;;;;16.56;76.38;97005.84;5034286;28;20076;-80
2022/06/11 07:03:08;;;;;;;7.45;4.88;;;;;;;16.55;76.86;96999.56;5034424;28;20049;-81
2022/06/11 07:05:36;;;;;;;5.15;3.80;;;;;;;16.81;75.28;97002.03;5035739;28;20046;-80
2022/06/11 07:08:03;;;;;;;6.38;4.43;;;;;;;16.91;76.19;97001.59;5034009;28;20045;-79
2022/06/11 07:10:29;;;;;;;6.25;4.55;;;;;;;16.94;74.83;96995.38;5033874;28;20049;-80
2022/06/11 07:12:56;;;;;;;7.05;4.40;;;;;;;17.02;75.17;96998.34;5034294;28;20424;-80
2022/06/11 07:15:22;;;;;;;6.70;4.88;;;;;;;17.24;75.63;97002.59;5022879;28;20056;-80
2022/06/11 07:17:54;;;;;;;7.32;4.93;;;;;;;17.41;74.67;97008.66;5034064;28;20045;-80
2022/06/11 07:20:24;;;;;;;7.45;4.88;;;;;;;17.50;73.60;97002.22;5033399;28;20045;-79
2022/06/11 07:22:57;;;;;;;9.20;5.28;;;;;;;17.46;77.28;97000.16;5033995;28;20041;-79
2022/06/11 07:25:24;;;;;;;5.68;4.03;;;;;;;17.60;75.75;96988.78;5033203;28;20493;-80
2022/06/11 07:27:57;;;;;;;6.90;4.63;;;;;;;17.71;69.55;96994.59;5033451;28;20045;-80
2022/06/11 07:30:26;;;;;;;7.63;4.38;;;;;;;17.78;70.39;97000.34;5033593;28;20053;-80
2022/06/11 07:32:57;;;;;;;5.95;4.10;;;;;;;17.91;70.12;96993.66;5033811;28;20049;-81
2022/06/11 07:35:24;;;;;;;7.60;4.22;;;;;;;17.99;70.01;96991.88;5033228;28;20042;-80
2022/06/11 07:37:52;;;;;;;5.85;4.22;;;;;;;18.11;70.91;96991.03;5033617;28;20215;-79
2022/06/11 07:40:21;;;;;;;6.88;4.80;;;;;;;18.20;73.67;96994.44;5032545;28;20045;-80
2022/06/11 07:42:47;;;;;;;7.10;4.18;;;;;;;18.35;71.07;96998.38;5033362;28;20052;-81
2022/06/11 07:45:14;;;;;;;8.65;4.10;;;;;;;18.31;69.42;96995.53;5032820;28;20053;-81
2022/06/11 07:47:55;;;;;;;6.13;4.25;;;;;;;18.47;69.30;96987.28;5033093;28;20044;-79
2022/06/11 07:50:24;;;;;;;7.43;3.92;;;;;;;18.62;67.72;96989.25;5032604;28;20053;-80
2022/06/11 07:52:53;;;;;;;6.68;3.70;;;;;;;18.66;70.06;96992.91;5033297;28;20060;-79
2022/06/11 07:55:20;;;;;;;6.88;3.08;;;;;;;18.71;64.37;96997.41;5032817;28;20049;-80
2022/06/11 07:57:47;;;;;;;3.63;2.78;;;;;;;18.96;67.24;96993.31;5033168;28;20056;-79
2022/06/11 08:00:17;;;;;;;5.13;3.17;;;;;;;19.08;64.51;96994.38;5032576;28;20047;-79
2022/06/11 08:02:44;;;;;;;5.13;3.25;;;;;;;19.28;61.28;96998.81;5033368;28;20041;-81
2022/06/11 08:05:10;;;;;;;9.00;3.03;;;;;;;19.29;61.11;96997.63;5033101;28;20513;-80
2022/06/11 08:07:37;;;;;;;4.13;2.88;;;;;;;19.41;61.46;97000.28;5033339;28;20552;-81
2022/06/11 08:10:05;;;;;;;4.80;2.85;;;;;;;19.67;59.74;96999.69;5032341;28;20053;-81
2022/06/11 08:12:32;;;;;;;3.60;2.70;;;;;;;20.24;57.71;97003.66;5033603;28;20045;-80
2022/06/11 08:14:59;;;;;;;3.67;2.53;;;;;;;20.92;53.51;97001.34;5033136;28;20262;-81
2022/06/11 08:17:26;;;;;;;6.35;3.17;;;;;;;21.53;55.24;97003.94;5032766;28;20046;-81
2022/06/11 08:19:52;;;;;;;6.18;3.08;;;;;;;21.53;51.37;96998.41;5032407;28;20061;-80
2022/06/11 08:22:20;;;;;;;5.40;2.85;;;;;;;22.42;54.20;96998.78;5032614;28;20041;-81
2022/06/11 08:24:47;;;;;;;5.43;2.92;;;;;;;22.55;51.97;96994.56;5032997;28;20412;-80
2022/06/11 08:27:16;;;;;;;3.88;2.70;;;;;;;22.18;49.65;97004.81;5033201;28;20045;-81
2022/06/11 08:29:43;;;;;;;3.83;2.60;;;;;;;22.72;51.74;97006.22;5033697;28;20103;-82
2022/06/11 08:32:10;;;;;;;9.00;3.15;;;;;;;22.74;51.53;97003.84;5032057;28;20404;-78
2022/06/11 08:34:37;;;;;;;4.82;2.42;;;;;;;23.02;52.34;96998.59;5033381;28;20049;-81
2022/06/11 08:37:04;;;;;;;6.15;2.85;;;;;;;23.08;54.00;96997.06;5032255;28;20052;-79
2022/06/11 08:39:31;;;;;;;4.47;2.80;;;;;;;23.07;55.92;96998.22;5032265;28;20038;-80
2022/06/11 08:41:59;;;;;;;5.93;2.92;;;;;;;22.90;51.57;96996.09;5032662;28;20046;-79
2022/06/11 08:44:28;;;;;;;4.53;2.50;;;;;;;22.86;50.57;97006.34;5031840;28;20048;-79
2022/06/11 08:46:58;;;;;;;4.60;2.72;;;;;;;22.86;56.35;96995.22;5032384;28;20042;-79
2022/06/11 08:49:32;;;;;;;2.80;2.28;;;;;;;22.94;50.14;96996.13;5031999;28;20049;-80
2022/06/11 08:52:08;;;;;;;4.35;2.22;;;;;;;23.03;52.04;96986.31;5032357;28;20041;-80
2022/06/11 08:54:40;;;;;;;4.18;2.20;;;;;;;23.06;52.22;96987.50;5032693;28;20381;-80
2022/06/11 08:57:18;;;;;;;5.25;2.35;;;;;;;23.11;50.28;96996.28;5032167;28;20546;-81
2022/06/11 09:00:02;;;;;;;3.60;2.50;;;;;;;23.10;46.91;96994.69;5032151;28;20045;-80
2022/06/11 09:02:47;;;;;;;5.70;3.08;;;;;;;23.01;51.17;96990.63;5032941;28;20045;-81
2022/06/11 09:05:43;;;;;;;3.67;2.58;;;;;;;23.02;46.58;96993.06;5032816;28;20046;-81
2022/06/11 09:08:26;;;;;;;3.45;2.58;;;;;;;23.17;54.12;96988.38;5033394;28;20052;-80
2022/06/11 09:11:05;;;;;;;3.92;2.35;;;;;;;23.23;50.30;96991.59;5031985;28;20095;-79
2022/06/11 09:14:15;;;;;;;4.13;2.58;;;;;;;23.35;47.12;96988.53;5022990;28;20044;-80
2022/06/11 09:16:59;;;;;;;4.32;2.10;;;;;;;23.51;53.07;96989.03;5032341;28;20451;-83
2022/06/11 09:19:53;;;;;;;4.72;2.35;;;;;;;23.71;48.52;96983.25;5032106;28;20045;-80
2022/06/11 09:22:32;;;;;;;5.30;2.38;;;;;;;23.83;52.82;96985.69;5031822;28;20386;-80
2022/06/11 09:25:14;;;;;;;3.78;2.22;;;;;;;23.78;47.70;96983.28;5031491;28;20052;-81
2022/06/11 09:27:46;;;;;;;5.32;2.83;;;;;;;23.76;50.39;96980.09;5031168;28;20095;-80
2022/06/11 09:30:17;;;;;;;4.90;2.10;;;;;;;23.92;46.17;96988.91;5032238;28;20526;-79
2022/06/11 09:32:57;;;;;;;4.40;2.30;;;;;;;23.72;42.32;96987.63;5032244;28;20075;-79
2022/06/11 09:35:32;;;;;;;2.10;1.80;;;;;;;23.60;47.67;96978.38;5033925;28;20050;-79
2022/06/11 09:38:08;;;;;;;4.07;1.80;;;;;;;23.65;45.21;96985.59;5033688;28;20121;-80
2022/06/11 09:40:39;;;;;;;2.65;1.65;;;;;;;23.16;40.35;96981.25;5015530;28;20045;-81
2022/06/11 09:43:28;;;;;;;3.05;1.80;;;;;;;23.00;44.80;96978.72;5012887;28;20042;-80
2022/06/11 09:46:04;;;;;;;4.07;1.60;;;;;;;22.60;43.91;96977.56;5014254;28;20049;-80
2022/06/11 09:48:45;;;;;;;3.72;1.75;;;;;;;22.20;43.40;96975.53;5014448;28;20050;-80
2022/06/11 09:51:21;;;;;;;2.42;1.75;;;;;;;21.88;44.77;96981.47;5014141;28;20525;-80
2022/06/11 09:54:05;;;;;;;4.10;1.88;;;;;;;21.73;45.03;96982.44;5011148;28;20080;-80
2022/06/11 09:56:41;;;;;;;5.03;1.95;;;;;;;22.10;45.01;96977.00;5021790;28;20049;-80
2022/06/11 09:59:24;;;;;;;2.92;1.92;;;;;;;22.41;41.12;96974.97;5005162;28;20048;-81
2022/06/11 10:01:55;;;;;;;2.35;1.60;;;;;;;22.30;41.25;96974.06;5024746;28;20049;-80
2022/06/11 10:04:28;;;;;;;4.15;2.20;;;;;;;22.43;43.23;96978.16;5015015;28;20058;-81
2022/06/11 10:06:55;;;;;;;;;;;;;;;22.44;42.54;96976.19;5017477;28;20493;-80
2022/06/11 10:09:26;;;;;;;1.95;1.40;;;;;;;22.37;41.47;96976.91;5020004;28;19956;-80
2022/06/11 10:11:59;;;;;;;2.17;1.73;;;;;;;22.63;43.36;96976.78;5035519;28;20045;-79
2022/06/11 10:14:34;;;;;;;1.93;1.27;;;;;;;22.67;40.20;96983.19;5036681;28;20053;-80
2022/06/11 10:17:09;;;;;;;4.70;1.88;;;;;;;22.60;42.27;96985.91;5035838;28;20284;-81
2022/06/11 10:19:42;;;;;;;2.35;1.63;;;;;;;22.77;43.15;96981.69;5035499;28;20037;-81
2022/06/11 10:22:16;;;;;;;3.00;1.65;;;;;;;22.96;42.29;96972.34;5033152;28;20045;-80
2022/06/11 10:24:54;;;;;;;2.92;1.80;;;;;;;23.02;43.64;96976.38;5034637;28;20572;-80
2022/06/11 10:27:23;;;;;;;4.55;1.35;;;;;;;23.16;39.55;96976.47;5036639;28;20520;-81
2022/06/11 10:29:53;;;;;;;3.20;1.50;;;;;;;23.00;38.76;96978.72;5029199;28;20416;-80
2022/06/11 10:32:25;;;;;;;5.97;1.80;;;;;;;23.05;38.60;96974.81;5035937;28;20053;-82
2022/06/11 10:34:59;;;;;;;3.72;1.58;;;;;;;23.01;37.44;96974.78;5035826;28;20053;-81
2022/06/11 10:37:30;;;;;;;2.13;1.52;;;;;;;23.24;39.43;96982.13;5034942;28;20497;-80
2022/06/11 10:40:07;;;;;;;3.85;2.40;;;;;;;23.15;39.62;96979.66;5033676;28;20041;-80
2022/06/11 10:42:39;;;;;;;3.63;1.50;;;;;;;23.30;43.80;96969.44;5033986;28;20042;-80
2022/06/11 10:45:12;;;;;;;2.97;1.73;;;;;;;23.57;45.11;96973.59;5037024;28;20481;-80
2022/06/11 10:47:42;;;;;;;2.90;1.73;;;;;;;23.52;39.13;96962.03;5024655;28;20041;-80
2022/06/11 10:50:19;;;;;;;2.50;1.80;;;;;;;23.53;45.58;96960.84;5031456;28;20065;-79
2022/06/11 10:52:54;;;;;;;2.88;1.73;;;;;;;23.61;39.71;96968.06;5032463;28;20046;-82
2022/06/11 10:55:30;;;;;;;5.28;1.77;;;;;;;23.57;43.54;96962.47;5036203;28;21166;-81
2022/06/11 10:58:04;;;;;;;3.40;1.50;;;;;;;23.77;43.27;96960.22;5036287;28;20053;-82
2022/06/11 11:00:41;;;;;;;4.10;1.60;;;;;;;23.86;42.47;96963.47;5037560;28;20528;-82
2022/06/11 11:03:15;;;;;;;2.28;1.52;;;;;;;23.83;39.39;96961.44;5039119;28;20515;-81
2022/06/11 11:05:50;;;;;;;3.53;1.80;;;;;;;23.90;44.81;96952.34;5036604;28;20052;-82
2022/06/11 11:08:17;;;;;;;5.53;1.60;;;;;;;23.79;42.07;96952.28;5037505;28;20049;-81
2022/06/11 11:10:46;;;;;;;3.47;1.35;;;;;;;24.03;40.09;96961.94;5040105;28;20050;-82
2022/06/11 11:13:24;;;;;;;2.97;1.30;;;;;;;23.89;43.22;96954.31;5038403;28;20053;-81
2022/06/11 11:16:01;;;;;;;2.92;1.08;;;;;;;23.84;38.99;96953.91;5036860;28;20056;-81
2022/06/11 11:18:35;;;;;;;3.70;1.55;;;;;;;23.71;41.21;96945.09;5035459;28;20041;-82
2022/06/11 11:21:06;;;;;;;1.88;1.20;;;;;;;23.92;43.14;96952.75;5035683;28;20053;-81
2022/06/11 11:23:38;;;;;;;3.28;1.00;;;;;;;24.01;35.50;96952.38;5035019;28;20034;-81
2022/06/11 11:26:12;;;;;;;1.27;1.10;;;;;;;23.99;40.32;96955.56;5037034;28;20099;-81
2022/06/11 11:28:54;;;;;;;1.70;1.08;;;;;;;24.06;38.87;96950.00;5040227;28;20048;-82
2022/06/11 11:31:24;;;;;;;1.90;1.40;;;;;;;23.81;36.89;96943.56;5180917;22;20144;-82
2022/06/11 11:34:01;;;;;;;1.67;1.23;;;;;;;24.04;39.38;96946.84;5088358;28;20056;-81
2022/06/11 11:36:31;;;;;;;6.00;1.83;;;;;;;24.14;44.63;96946.06;5084972;28;20037;-82
2022/06/11 11:39:16;;;;;;;1.73;1.17;;;;;;;23.97;41.01;96944.03;5087497;28;20036;-81
2022/06/11 11:41:51;;;;;;;1.52;1.20;;;;;;;24.16;40.31;96943.69;5082398;28;20411;-82
2022/06/11 11:44:19;;;;;;;1.83;1.40;;;;;;;24.11;41.28;96949.63;5083964;28;20053;-82
2022/06/11 11:46:48;;;;;;;2.58;1.40;;;;;;;24.03;40.57;96934.13;5083098;28;20098;-83
2022/06/11 11:49:23;;;;;;;3.53;1.70;;;;;;;24.27;42.18;96942.91;5077901;28;20445;-80
2022/06/11 11:51:51;;;;;;;2.95;1.45;;;;;;;24.15;41.57;96942.09;5082512;28;20059;-81
2022/06/11 11:54:21;;;;;;;3.17;1.50;;;;;;;24.24;43.73;96940.94;5079473;28;20048;-81
2022/06/11 11:56:52;;;;;;;2.78;1.15;;;;;;;24.06;40.73;96944.44;5081180;28;20066;-83